createdAt,value
2018-12-06T00:01:46.216Z,6.20
2018-12-06T00:04:14.396Z,6.20
2018-12-06T00:06:42.598Z,6.30
2018-12-06T00:09:10.768Z,6.20
2018-12-06T00:11:38.956Z,6.30
2018-12-06T00:14:07.113Z,6.20
2018-12-06T00:16:35.306Z,6.30
2018-12-06T00:19:07.668Z,6.30
2018-12-06T00:21:36.012Z,6.30
2018-12-06T00:24:04.177Z,6.30
2018-12-06T00:26:32.372Z,6.30
2018-12-06T00:29:00.641Z,6.30
2018-12-06T00:31:28.910Z,6.30
2018-12-06T00:33:57.121Z,6.20
2018-12-06T00:36:25.315Z,6.30
2018-12-06T00:38:53.500Z,6.30
2018-12-06T00:41:21.729Z,6.30
2018-12-06T00:43:49.872Z,6.20
2018-12-06T00:46:18.049Z,6.20
2018-12-06T00:48:46.244Z,6.20
2018-12-06T00:51:14.424Z,6.20
2018-12-06T00:53:42.618Z,6.20
2018-12-06T00:56:10.817Z,6.20
2018-12-06T00:58:38.992Z,6.20
2018-12-06T01:01:07.167Z,6.20
2018-12-06T01:03:35.257Z,6.30
2018-12-06T01:06:03.340Z,6.20
2018-12-06T01:08:31.537Z,6.20
2018-12-06T01:10:59.714Z,6.20
2018-12-06T01:13:27.908Z,6.30
2018-12-06T01:15:56.092Z,6.30
2018-12-06T01:18:24.281Z,6.30
2018-12-06T01:20:52.361Z,6.30
2018-12-06T01:23:20.553Z,6.30
2018-12-06T01:25:48.737Z,6.30
2018-12-06T01:28:16.933Z,6.30
2018-12-06T01:30:45.109Z,6.30
2018-12-06T01:33:13.304Z,6.30
2018-12-06T01:35:41.484Z,6.30
2018-12-06T01:38:09.681Z,6.30
2018-12-06T01:40:37.861Z,6.30
2018-12-06T01:43:06.057Z,6.30
2018-12-06T01:45:34.229Z,6.30
2018-12-06T01:48:02.421Z,6.20
2018-12-06T01:50:30.616Z,6.20
2018-12-06T01:52:58.789Z,6.20
2018-12-06T01:55:26.980Z,6.20
2018-12-06T01:57:55.165Z,6.20
2018-12-06T02:00:23.348Z,6.20
2018-12-06T02:02:51.424Z,6.30
2018-12-06T02:05:19.519Z,6.30
2018-12-06T02:07:47.915Z,6.20
2018-12-06T02:10:15.996Z,6.20
2018-12-06T02:12:44.178Z,6.30
2018-12-06T02:15:12.269Z,6.30
2018-12-06T02:17:40.454Z,6.20
2018-12-06T02:20:08.544Z,6.30
2018-12-06T02:22:37.632Z,6.30
2018-12-06T02:25:05.720Z,6.30
2018-12-06T02:27:33.804Z,6.30
2018-12-06T02:30:01.905Z,6.30
2018-12-06T02:32:30.079Z,6.30
2018-12-06T02:34:58.273Z,6.30
2018-12-06T02:37:26.457Z,6.30
2018-12-06T02:39:54.648Z,6.30
2018-12-06T02:42:22.825Z,6.30
2018-12-06T02:44:51.092Z,6.30
2018-12-06T02:47:19.305Z,6.40
2018-12-06T02:49:47.585Z,6.40
2018-12-06T02:52:15.848Z,6.40
2018-12-06T02:54:43.976Z,6.40
2018-12-06T02:57:12.156Z,6.30
2018-12-06T02:59:40.271Z,6.30
2018-12-06T03:02:08.424Z,6.30
2018-12-06T03:04:36.509Z,6.40
2018-12-06T03:07:04.596Z,6.40
2018-12-06T03:09:32.672Z,6.40
2018-12-06T03:12:00.769Z,6.40
2018-12-06T03:14:28.949Z,6.40
2018-12-06T03:16:57.036Z,6.40
2018-12-06T03:19:25.220Z,6.40
2018-12-06T03:21:53.315Z,6.40
2018-12-06T03:24:21.488Z,6.40
2018-12-06T03:26:49.584Z,6.40
2018-12-06T03:29:17.769Z,6.40
2018-12-06T03:31:45.997Z,6.40
2018-12-06T03:34:14.240Z,6.40
2018-12-06T03:36:42.436Z,6.40
2018-12-06T03:39:10.630Z,6.40
2018-12-06T03:41:38.813Z,6.40
2018-12-06T03:44:07.098Z,6.40
2018-12-06T03:46:35.287Z,6.40
2018-12-06T03:49:03.476Z,6.40
2018-12-06T03:51:31.673Z,6.40
2018-12-06T03:53:59.836Z,6.40
2018-12-06T03:56:27.921Z,6.40
2018-12-06T03:58:56.020Z,6.40
2018-12-06T04:01:24.194Z,6.40
2018-12-06T04:03:52.268Z,6.40
2018-12-06T04:06:20.468Z,6.40
2018-12-06T04:08:48.651Z,6.50
2018-12-06T04:11:16.896Z,6.50
2018-12-06T04:13:45.137Z,6.50
2018-12-06T04:16:13.336Z,6.50
2018-12-06T04:18:41.529Z,6.50
2018-12-06T04:21:09.696Z,6.50
2018-12-06T04:23:37.892Z,6.50
2018-12-06T04:26:06.060Z,6.60
2018-12-06T04:28:34.158Z,6.50
2018-12-06T04:31:02.336Z,6.60
2018-12-06T04:33:30.542Z,6.60
2018-12-06T04:35:58.712Z,6.50
2018-12-06T04:38:26.818Z,6.60
2018-12-06T04:40:54.980Z,6.60
2018-12-06T04:43:23.072Z,6.60
2018-12-06T04:45:51.248Z,6.60
2018-12-06T04:48:22.190Z,6.60
2018-12-06T04:50:49.474Z,6.60
2018-12-06T04:53:17.681Z,6.60
2018-12-06T04:55:45.845Z,6.60
2018-12-06T04:58:13.920Z,6.60
2018-12-06T05:00:42.125Z,6.70
2018-12-06T05:03:10.312Z,6.70
2018-12-06T05:05:38.500Z,6.70
2018-12-06T05:08:06.672Z,6.70
2018-12-06T05:10:34.872Z,6.70
2018-12-06T05:13:03.053Z,6.70
2018-12-06T05:15:31.245Z,6.70
2018-12-06T05:17:59.567Z,6.70
2018-12-06T05:20:27.720Z,6.70
2018-12-06T05:22:55.792Z,6.70
2018-12-06T05:25:23.890Z,6.80
2018-12-06T05:27:52.064Z,6.80
2018-12-06T05:30:20.166Z,6.80
2018-12-06T05:32:48.357Z,6.70
2018-12-06T05:35:16.534Z,6.80
2018-12-06T05:37:44.713Z,6.80
2018-12-06T05:40:12.813Z,6.80
2018-12-06T05:42:40.993Z,6.80
2018-12-06T05:45:09.100Z,6.70
2018-12-06T05:47:37.260Z,6.70
2018-12-06T05:50:06.560Z,6.80
2018-12-06T05:52:34.661Z,6.80
2018-12-06T05:55:02.860Z,6.80
2018-12-06T05:57:31.024Z,6.80
2018-12-06T05:59:59.113Z,6.80
2018-12-06T06:02:27.212Z,6.80
2018-12-06T06:04:55.380Z,6.80
2018-12-06T06:07:23.725Z,6.80
2018-12-06T06:09:51.860Z,6.90
2018-12-06T06:12:19.996Z,6.90
2018-12-06T06:14:48.248Z,6.90
2018-12-06T06:17:16.436Z,6.90
2018-12-06T06:19:44.604Z,6.90
2018-12-06T06:22:12.702Z,7.00
2018-12-06T06:24:40.888Z,7.00
2018-12-06T06:27:09.077Z,7.00
2018-12-06T06:29:37.253Z,7.00
2018-12-06T06:32:05.356Z,7.00
2018-12-06T06:34:33.525Z,7.00
2018-12-06T06:37:01.620Z,7.10
2018-12-06T06:39:29.805Z,7.10
2018-12-06T06:41:57.993Z,7.10
2018-12-06T06:44:26.168Z,7.10
2018-12-06T06:46:54.264Z,7.10
2018-12-06T06:49:22.444Z,7.10
2018-12-06T06:51:50.534Z,7.10
2018-12-06T06:54:18.720Z,7.10
2018-12-06T06:56:46.813Z,7.10
2018-12-06T06:59:14.976Z,7.10
2018-12-06T07:01:43.070Z,7.10
2018-12-06T07:04:11.155Z,7.10
2018-12-06T07:06:39.350Z,7.10
2018-12-06T07:09:08.024Z,7.20
2018-12-06T07:11:36.352Z,7.20
2018-12-06T07:14:04.761Z,7.20
2018-12-06T07:16:32.912Z,7.20
2018-12-06T07:19:01.108Z,7.20
2018-12-06T07:21:29.276Z,7.20
2018-12-06T07:23:57.378Z,7.20
2018-12-06T07:26:25.572Z,7.20
2018-12-06T07:28:53.745Z,7.20
2018-12-06T07:31:21.832Z,7.20
2018-12-06T07:33:50.021Z,7.20
2018-12-06T07:36:18.201Z,7.20
2018-12-06T07:38:46.392Z,7.20
2018-12-06T07:41:14.568Z,7.20
2018-12-06T07:43:42.668Z,7.20
2018-12-06T07:46:11.495Z,7.30
2018-12-06T07:48:39.688Z,7.30
2018-12-06T07:51:07.844Z,7.30
2018-12-06T07:53:36.029Z,7.30
2018-12-06T07:56:04.204Z,7.30
2018-12-06T07:58:32.302Z,7.40
2018-12-06T08:01:00.488Z,7.30
2018-12-06T08:03:28.672Z,7.40
2018-12-06T08:05:56.860Z,7.40
2018-12-06T08:08:25.056Z,7.40
2018-12-06T08:10:53.224Z,7.40
2018-12-06T08:13:21.304Z,7.50
2018-12-06T08:15:49.407Z,7.50
2018-12-06T08:18:17.575Z,7.50
2018-12-06T08:20:45.776Z,7.50
2018-12-06T08:23:13.954Z,7.50
2018-12-06T08:25:42.045Z,7.50
2018-12-06T08:28:10.230Z,7.50
2018-12-06T08:30:38.423Z,7.50
2018-12-06T08:33:06.609Z,7.60
2018-12-06T08:35:34.788Z,7.60
2018-12-06T08:38:02.973Z,7.60
2018-12-06T08:40:31.053Z,7.60
2018-12-06T08:42:59.244Z,7.60
2018-12-06T08:45:27.349Z,7.60
2018-12-06T08:47:55.516Z,7.60
2018-12-06T08:50:23.605Z,7.70
2018-12-06T08:52:51.680Z,7.70
2018-12-06T08:55:19.778Z,7.70
2018-12-06T08:57:48.068Z,7.70
2018-12-06T09:00:16.153Z,7.80
2018-12-06T09:02:44.329Z,7.80
2018-12-06T09:05:12.411Z,7.80
2018-12-06T09:07:40.500Z,7.80
2018-12-06T09:10:08.831Z,7.90
2018-12-06T09:12:36.972Z,7.90
2018-12-06T09:15:06.679Z,7.90
2018-12-06T09:17:34.764Z,7.90
2018-12-06T09:20:02.866Z,8.00
2018-12-06T09:22:30.957Z,8.00
2018-12-06T09:24:59.136Z,8.10
2018-12-06T09:27:27.233Z,8.00
2018-12-06T09:29:55.305Z,8.10
2018-12-06T09:32:23.504Z,8.10
2018-12-06T09:34:51.692Z,8.10
2018-12-06T09:37:19.881Z,8.20
2018-12-06T09:39:56.843Z,8.20
2018-12-06T09:42:24.947Z,8.20
2018-12-06T09:44:53.133Z,8.20
2018-12-06T09:47:21.332Z,8.20
2018-12-06T09:49:49.436Z,8.20
2018-12-06T09:52:18.629Z,8.20
2018-12-06T09:54:46.804Z,8.30
2018-12-06T09:57:15.046Z,8.30
2018-12-06T09:59:43.180Z,8.30
2018-12-06T10:02:11.274Z,8.30
2018-12-06T10:04:39.462Z,8.30
2018-12-06T10:07:07.625Z,8.30
2018-12-06T10:09:35.720Z,8.30
2018-12-06T10:12:03.917Z,8.40
2018-12-06T10:14:32.102Z,8.40
2018-12-06T10:17:00.300Z,8.40
2018-12-06T10:19:28.463Z,8.40
2018-12-06T10:21:56.560Z,8.40
2018-12-06T10:24:24.763Z,8.40
2018-12-06T10:26:52.941Z,8.50
2018-12-06T10:29:21.098Z,8.50
2018-12-06T10:31:49.209Z,8.50
2018-12-06T10:34:17.380Z,8.50
2018-12-06T10:36:45.480Z,8.60
2018-12-06T10:39:13.668Z,8.60
2018-12-06T10:41:41.844Z,8.60
2018-12-06T10:44:09.972Z,8.70
2018-12-06T10:46:38.116Z,8.70
2018-12-06T10:49:06.314Z,8.70
2018-12-06T10:51:42.161Z,8.70
2018-12-06T10:54:10.366Z,8.80
2018-12-06T10:56:38.556Z,8.80
2018-12-06T10:59:06.740Z,8.80
2018-12-06T11:01:40.404Z,8.90
2018-12-06T11:04:08.540Z,8.80
2018-12-06T11:06:36.729Z,8.90
2018-12-06T11:09:06.940Z,8.90
2018-12-06T11:11:35.050Z,9.00
2018-12-06T11:14:03.397Z,9.10
2018-12-06T11:16:31.637Z,9.10
2018-12-06T11:18:59.813Z,9.20
2018-12-06T11:21:27.992Z,9.30
2018-12-06T11:23:56.168Z,9.40
2018-12-06T11:26:24.264Z,9.40
2018-12-06T11:28:52.456Z,9.50
2018-12-06T11:31:20.635Z,9.50
2018-12-06T11:33:48.728Z,9.60
2018-12-06T11:36:16.913Z,9.70
2018-12-06T11:38:45.100Z,9.70
2018-12-06T11:41:13.282Z,9.80
2018-12-06T11:43:41.481Z,9.80
2018-12-06T11:46:09.656Z,9.90
2018-12-06T11:48:37.765Z,9.90
2018-12-06T11:51:05.926Z,10.00
2018-12-06T11:53:34.080Z,10.00
2018-12-06T11:56:02.212Z,10.00
2018-12-06T11:58:30.464Z,10.10
2018-12-06T12:00:58.583Z,10.10
2018-12-06T12:03:26.764Z,10.20
2018-12-06T12:05:58.610Z,10.30
2018-12-06T12:08:25.084Z,10.30
2018-12-06T12:10:53.289Z,10.40
2018-12-06T12:13:21.462Z,10.40
2018-12-06T12:15:49.656Z,10.50
2018-12-06T12:18:17.740Z,10.50
2018-12-06T12:20:45.923Z,10.50
2018-12-06T12:23:14.112Z,10.50
2018-12-06T12:25:42.297Z,10.50
2018-12-06T12:28:10.473Z,10.50
2018-12-06T12:30:38.573Z,10.60
2018-12-06T12:33:06.651Z,10.60
2018-12-06T12:35:34.965Z,10.60
2018-12-06T12:38:03.120Z,10.70
2018-12-06T12:40:31.325Z,10.70
2018-12-06T12:42:59.500Z,10.70
2018-12-06T12:45:27.689Z,10.80
2018-12-06T12:47:55.868Z,10.90
2018-12-06T12:50:23.953Z,10.90
2018-12-06T12:52:52.248Z,10.90
2018-12-06T12:55:20.332Z,11.00
2018-12-06T12:57:48.519Z,11.00
2018-12-06T13:00:16.705Z,11.00
2018-12-06T13:02:44.896Z,11.00
2018-12-06T13:05:13.071Z,11.00
2018-12-06T13:07:41.180Z,10.90
2018-12-06T13:10:09.353Z,11.00
2018-12-06T13:12:37.541Z,10.90
2018-12-06T13:15:06.828Z,10.90
2018-12-06T13:17:34.940Z,10.90
2018-12-06T13:20:03.176Z,10.90
2018-12-06T13:22:31.312Z,10.90
2018-12-06T13:24:59.494Z,10.90
2018-12-06T13:27:27.696Z,10.90
2018-12-06T13:29:55.865Z,10.90
2018-12-06T13:32:24.058Z,10.90
2018-12-06T13:34:52.261Z,10.90
2018-12-06T13:37:20.547Z,10.90
2018-12-06T13:39:48.750Z,10.90
2018-12-06T13:42:23.348Z,11.00
2018-12-06T13:44:47.056Z,11.00
2018-12-06T13:47:15.229Z,11.00
2018-12-06T13:49:43.417Z,11.00
2018-12-06T13:52:11.620Z,11.00
2018-12-06T13:54:39.786Z,11.10
2018-12-06T13:57:07.968Z,11.00
2018-12-06T13:59:36.165Z,11.10
2018-12-06T14:02:04.346Z,11.10
2018-12-06T14:04:32.537Z,11.10
2018-12-06T14:07:00.608Z,11.00
2018-12-06T14:09:28.805Z,11.00
2018-12-06T14:11:56.987Z,11.00
2018-12-06T14:14:25.188Z,11.00
2018-12-06T14:16:53.359Z,11.00
2018-12-06T14:19:21.448Z,11.00
2018-12-06T14:21:49.640Z,11.10
2018-12-06T14:24:17.825Z,11.00
2018-12-06T14:26:46.116Z,11.00
2018-12-06T14:29:14.201Z,11.00
2018-12-06T14:31:42.380Z,11.00
2018-12-06T14:34:10.481Z,11.00
2018-12-06T14:36:38.652Z,11.00
2018-12-06T14:39:08.682Z,10.90
2018-12-06T14:41:37.001Z,10.90
2018-12-06T14:44:05.274Z,10.90
2018-12-06T14:46:33.446Z,10.90
2018-12-06T14:49:01.646Z,10.80
2018-12-06T14:51:29.826Z,10.80
2018-12-06T14:53:58.016Z,10.80
2018-12-06T14:56:26.192Z,10.80
2018-12-06T14:58:54.304Z,10.80
2018-12-06T15:01:22.470Z,10.80
2018-12-06T15:03:50.653Z,10.80
2018-12-06T15:06:18.786Z,10.70
2018-12-06T15:08:46.928Z,10.70
2018-12-06T15:11:15.203Z,10.70
2018-12-06T15:13:43.408Z,10.70
2018-12-06T15:16:11.597Z,10.70
2018-12-06T15:18:39.777Z,10.60
2018-12-06T15:21:07.868Z,10.60
2018-12-06T15:23:36.051Z,10.60
2018-12-06T15:26:04.240Z,10.60
2018-12-06T15:28:32.428Z,10.60
2018-12-06T15:31:00.614Z,10.60
2018-12-06T15:33:28.800Z,10.60
2018-12-06T15:35:56.989Z,10.60
2018-12-06T15:38:25.172Z,10.60
2018-12-06T15:40:53.360Z,10.60
2018-12-06T15:43:21.541Z,10.50
2018-12-06T15:45:49.744Z,10.50
2018-12-06T15:48:17.921Z,10.50
2018-12-06T15:50:46.001Z,10.50
2018-12-06T15:54:04.364Z,10.40
2018-12-06T15:56:32.445Z,10.40
2018-12-06T15:59:00.536Z,10.40
2018-12-06T16:01:28.728Z,10.40
2018-12-06T16:03:56.908Z,10.40
2018-12-06T16:06:25.005Z,10.40
2018-12-06T16:08:53.185Z,10.40
2018-12-06T16:11:21.376Z,10.40
2018-12-06T16:13:49.558Z,10.30
2018-12-06T16:16:17.753Z,10.30
2018-12-06T16:18:45.936Z,10.20
2018-12-06T16:21:14.125Z,10.20
2018-12-06T16:23:42.313Z,10.10
2018-12-06T16:26:10.501Z,10.10
2018-12-06T16:28:38.577Z,10.10
2018-12-06T16:31:06.764Z,10.10
2018-12-06T16:33:34.952Z,10.10
2018-12-06T16:36:03.132Z,10.10
2018-12-06T16:38:31.252Z,10.10
2018-12-06T16:40:59.414Z,10.10
2018-12-06T16:43:27.600Z,10.10
2018-12-06T16:45:55.777Z,10.20
2018-12-06T16:48:23.869Z,10.20
2018-12-06T16:50:52.053Z,10.20
2018-12-06T16:53:20.146Z,10.20
2018-12-06T16:55:48.326Z,10.20
2018-12-06T16:58:16.518Z,10.20
2018-12-06T17:00:44.717Z,10.20
2018-12-06T17:03:12.833Z,10.20
2018-12-06T17:05:40.968Z,10.20
2018-12-06T17:08:09.065Z,10.20
2018-12-06T17:10:37.240Z,10.20
2018-12-06T17:13:05.324Z,10.10
2018-12-06T17:15:33.517Z,10.10
2018-12-06T17:18:01.708Z,10.10
2018-12-06T17:20:29.880Z,10.10
2018-12-06T17:22:57.977Z,10.10
2018-12-06T17:25:26.155Z,10.10
2018-12-06T17:27:54.348Z,10.10
2018-12-06T17:30:22.537Z,10.10
2018-12-06T17:32:50.696Z,10.20
2018-12-06T17:35:18.836Z,10.20
2018-12-06T17:37:47.101Z,10.10
2018-12-06T17:40:15.292Z,10.10
2018-12-06T17:42:43.459Z,10.10
2018-12-06T17:45:11.566Z,10.10
2018-12-06T17:47:39.741Z,10.10
2018-12-06T17:50:07.935Z,10.10
2018-12-06T17:52:36.021Z,10.20
2018-12-06T17:55:05.113Z,10.20
2018-12-06T17:57:33.236Z,10.20
2018-12-06T18:00:01.403Z,10.30
2018-12-06T18:02:30.601Z,10.30
2018-12-06T18:04:58.797Z,10.30
2018-12-06T18:07:26.972Z,10.30
2018-12-06T18:09:55.169Z,10.30
2018-12-06T18:12:23.352Z,10.30
2018-12-06T18:14:51.545Z,10.30
2018-12-06T18:17:19.719Z,10.30
2018-12-06T18:19:47.808Z,10.30
2018-12-06T18:22:16.017Z,10.20
2018-12-06T18:24:44.196Z,10.20
2018-12-06T18:27:12.365Z,10.20
2018-12-06T18:29:40.564Z,10.20
2018-12-06T18:32:08.739Z,10.20
2018-12-06T18:34:36.941Z,10.20
2018-12-06T18:37:05.112Z,10.20
2018-12-06T18:39:33.301Z,10.20
2018-12-06T18:42:01.500Z,10.20
2018-12-06T18:44:29.885Z,10.30
2018-12-06T18:46:57.946Z,10.30
2018-12-06T18:49:26.049Z,10.30
2018-12-06T18:51:54.137Z,10.20
2018-12-06T18:54:22.320Z,10.20
2018-12-06T18:56:50.512Z,10.20
2018-12-06T18:59:18.698Z,10.20
2018-12-06T19:01:46.883Z,10.30
2018-12-06T19:04:15.168Z,10.30
2018-12-06T19:06:44.377Z,10.30
2018-12-06T19:09:12.472Z,10.30
2018-12-06T19:11:40.661Z,10.30
2018-12-06T19:14:08.842Z,10.30
2018-12-06T19:16:37.037Z,10.30
2018-12-06T19:19:05.213Z,10.30
2018-12-06T19:21:33.404Z,10.30
2018-12-06T19:24:01.590Z,10.30
2018-12-06T19:26:29.676Z,10.30
2018-12-06T19:28:57.852Z,10.30
2018-12-06T19:31:26.052Z,10.30
2018-12-06T19:33:54.224Z,10.30
2018-12-06T19:36:22.325Z,10.30
2018-12-06T19:38:50.543Z,10.40
2018-12-06T19:41:18.688Z,10.40
2018-12-06T19:43:46.821Z,10.40
2018-12-06T19:46:14.945Z,10.40
2018-12-06T19:48:43.148Z,10.40
2018-12-06T19:51:11.446Z,10.40
2018-12-06T19:53:39.580Z,10.40
2018-12-06T19:56:07.844Z,10.40
2018-12-06T19:58:36.000Z,10.50
2018-12-06T20:01:04.184Z,10.50
2018-12-06T20:03:32.372Z,10.50
2018-12-06T20:06:00.557Z,10.60
2018-12-06T20:08:28.649Z,10.50
2018-12-06T20:10:56.829Z,10.50
2018-12-06T20:13:24.921Z,10.50
2018-12-06T20:15:53.128Z,10.60
2018-12-06T20:18:21.296Z,10.50
2018-12-06T20:20:49.473Z,10.50
2018-12-06T20:23:17.588Z,10.60
2018-12-06T20:25:45.745Z,10.60
2018-12-06T20:28:14.027Z,10.60
2018-12-06T20:30:42.127Z,10.60
2018-12-06T20:33:10.329Z,10.60
2018-12-06T20:35:38.495Z,10.60
2018-12-06T20:38:06.576Z,10.70
2018-12-06T20:40:34.761Z,10.60
2018-12-06T20:43:02.856Z,10.70
2018-12-06T20:45:31.037Z,10.70
2018-12-06T20:47:59.121Z,10.70
2018-12-06T20:50:27.302Z,10.70
2018-12-06T20:52:55.398Z,10.80
2018-12-06T20:55:23.477Z,10.80
2018-12-06T20:57:51.556Z,10.80
2018-12-06T21:00:19.648Z,10.80
2018-12-06T21:02:47.945Z,10.70
2018-12-06T21:05:16.032Z,10.70
2018-12-06T21:07:44.210Z,10.70
2018-12-06T21:10:12.444Z,10.80
2018-12-06T21:12:40.588Z,10.80
2018-12-06T21:15:08.675Z,10.80
2018-12-06T21:17:36.844Z,10.80
2018-12-06T21:20:05.941Z,10.80
2018-12-06T21:22:34.040Z,10.80
2018-12-06T21:25:02.141Z,10.80
2018-12-06T21:27:30.324Z,10.80
2018-12-06T21:29:58.521Z,10.80
2018-12-06T21:32:27.608Z,10.80
2018-12-06T21:34:55.716Z,10.80
2018-12-06T21:37:23.884Z,10.80
2018-12-06T21:39:51.984Z,10.80
2018-12-06T21:42:20.165Z,10.90
2018-12-06T21:44:48.352Z,10.80
2018-12-06T21:47:22.144Z,10.90
2018-12-06T21:49:50.395Z,10.90
2018-12-06T21:52:18.532Z,10.80
2018-12-06T21:54:46.630Z,10.90
2018-12-06T21:57:14.808Z,10.80
2018-12-06T21:59:42.883Z,10.90
2018-12-06T22:02:22.780Z,10.90
2018-12-06T22:04:50.948Z,10.90
2018-12-06T22:07:19.124Z,10.90
2018-12-06T22:09:47.213Z,11.00
2018-12-06T22:12:15.431Z,11.00
2018-12-06T22:14:43.578Z,11.00
2018-12-06T22:17:11.784Z,11.00
2018-12-06T22:19:39.956Z,11.00
2018-12-06T22:22:08.044Z,10.90
2018-12-06T22:24:36.293Z,11.00
2018-12-06T22:27:04.427Z,10.90
2018-12-06T22:29:32.672Z,10.90
2018-12-06T22:32:00.802Z,10.90
2018-12-06T22:34:29.071Z,10.90
2018-12-06T22:36:57.194Z,10.90
2018-12-06T22:39:25.348Z,10.90
2018-12-06T22:41:53.441Z,11.00
2018-12-06T22:44:21.623Z,11.00
2018-12-06T22:46:49.815Z,11.00
2018-12-06T22:49:18.002Z,11.00
2018-12-06T22:51:46.089Z,11.00
2018-12-06T22:54:14.148Z,11.00
2018-12-06T22:56:42.268Z,11.00
2018-12-06T22:59:10.448Z,11.00
2018-12-06T23:01:39.928Z,11.00
2018-12-06T23:04:08.636Z,11.00
2018-12-06T23:06:36.985Z,11.00
2018-12-06T23:09:08.506Z,11.10
2018-12-06T23:11:37.397Z,11.10
2018-12-06T23:14:05.606Z,11.10
2018-12-06T23:16:33.813Z,11.10
2018-12-06T23:19:02.317Z,11.10
2018-12-06T23:21:30.460Z,11.20
2018-12-06T23:23:58.800Z,11.10
2018-12-06T23:26:26.938Z,11.20
2018-12-06T23:28:55.036Z,11.20
2018-12-06T23:31:23.223Z,11.20
2018-12-06T23:33:51.403Z,11.20
2018-12-06T23:36:19.485Z,11.20
2018-12-06T23:38:47.577Z,11.20
2018-12-06T23:41:15.842Z,11.10
2018-12-06T23:43:44.061Z,11.10
2018-12-06T23:46:12.228Z,11.10
2018-12-06T23:48:40.353Z,11.10
2018-12-06T23:51:19.768Z,11.10
2018-12-06T23:53:47.864Z,11.10
2018-12-06T23:56:15.935Z,11.20
2018-12-06T23:58:44.024Z,11.10
